createdAt,value
2019-03-05T00:02:00.566Z,1.70
2019-03-05T00:04:30.868Z,2.17
2019-03-05T00:07:01.174Z,2.07
2019-03-05T00:09:32.496Z,2.00
2019-03-05T00:12:02.806Z,2.27
2019-03-05T00:14:33.098Z,2.30
2019-03-05T00:17:03.577Z,2.57
2019-03-05T00:19:33.934Z,2.40
2019-03-05T00:22:04.893Z,2.73
2019-03-05T00:25:04.726Z,2.53
2019-03-05T00:27:41.754Z,2.63
2019-03-05T00:30:25.258Z,3.67
2019-03-05T00:33:06.746Z,2.67
2019-03-05T00:36:01.665Z,2.70
2019-03-05T00:38:44.083Z,3.13
2019-03-05T00:41:24.417Z,2.70
2019-03-05T00:44:18.318Z,2.40
2019-03-05T00:47:32.512Z,2.80
2019-03-05T00:50:28.388Z,2.40
2019-03-05T00:53:10.386Z,2.40
2019-03-05T00:56:11.790Z,2.27
2019-03-05T00:59:24.353Z,2.87
2019-03-05T01:02:42.110Z,2.73
2019-03-05T01:05:47.350Z,2.50
2019-03-05T01:08:19.568Z,2.43
2019-03-05T01:10:49.640Z,2.27
2019-03-05T01:13:20.113Z,2.20
2019-03-05T01:15:50.601Z,1.90
2019-03-05T01:18:20.932Z,2.50
2019-03-05T01:20:51.317Z,2.90
2019-03-05T01:23:21.927Z,2.27
2019-03-05T01:25:52.225Z,2.43
2019-03-05T01:28:22.532Z,3.00
2019-03-05T01:31:14.906Z,3.20
2019-03-05T01:34:03.290Z,2.40
2019-03-05T01:36:36.381Z,2.80
2019-03-05T01:39:20.725Z,2.87
2019-03-05T01:41:51.042Z,2.60
2019-03-05T01:44:21.329Z,2.40
2019-03-05T01:46:51.705Z,2.90
2019-03-05T01:49:21.999Z,2.90
2019-03-05T01:51:52.333Z,2.20
2019-03-05T01:54:22.706Z,3.00
2019-03-05T01:56:53.010Z,2.53
2019-03-05T01:59:23.318Z,2.93
2019-03-05T02:01:53.733Z,3.03
2019-03-05T02:04:24.048Z,2.50
2019-03-05T02:06:54.393Z,2.43
2019-03-05T02:09:24.712Z,2.30
2019-03-05T02:11:55.020Z,2.70
2019-03-05T02:14:25.334Z,2.10
2019-03-05T02:16:55.710Z,2.53
2019-03-05T02:19:43.410Z,2.63
2019-03-05T02:22:32.506Z,2.40
2019-03-05T02:25:34.450Z,2.80
2019-03-05T02:28:45.502Z,2.17
2019-03-05T02:32:02.297Z,2.37
2019-03-05T02:35:02.266Z,3.13
2019-03-05T02:38:05.661Z,1.80
2019-03-05T02:41:00.607Z,2.37
2019-03-05T02:44:09.129Z,1.63
2019-03-05T02:47:05.228Z,1.33
2019-03-05T02:49:59.060Z,1.77
2019-03-05T02:52:38.671Z,1.70
2019-03-05T02:55:32.308Z,1.10
2019-03-05T02:58:01.095Z,1.27
2019-03-05T03:00:59.751Z,0.70
2019-03-05T03:03:40.021Z,1.00
2019-03-05T03:06:17.470Z,1.47
2019-03-05T03:08:47.906Z,1.20
2019-03-05T03:11:18.216Z,1.47
2019-03-05T03:13:48.617Z,1.30
2019-03-05T03:16:18.999Z,1.60
2019-03-05T03:18:49.345Z,1.60
2019-03-05T03:21:19.688Z,1.90
2019-03-05T03:23:50.092Z,1.63
2019-03-05T03:26:20.422Z,1.30
2019-03-05T03:28:50.767Z,1.70
2019-03-05T03:31:21.172Z,1.50
2019-03-05T03:33:51.626Z,1.23
2019-03-05T03:36:22.119Z,1.40
2019-03-05T03:38:52.467Z,1.03
2019-03-05T03:41:22.843Z,1.30
2019-03-05T03:43:53.260Z,0.90
2019-03-05T03:46:23.669Z,1.07
2019-03-05T03:48:58.109Z,1.00
2019-03-05T03:51:28.550Z,0.80
2019-03-05T03:53:58.922Z,1.40
2019-03-05T03:56:29.243Z,1.23
2019-03-05T03:58:59.687Z,1.30
2019-03-05T04:01:31.380Z,1.63
2019-03-05T04:04:01.819Z,1.53
2019-03-05T04:06:32.135Z,1.33
2019-03-05T04:09:02.458Z,1.33
2019-03-05T04:11:32.799Z,1.57
2019-03-05T04:14:03.114Z,1.30
2019-03-05T04:16:33.412Z,1.30
2019-03-05T04:19:05.383Z,1.47
2019-03-05T04:21:35.738Z,1.07
2019-03-05T04:24:06.125Z,1.83
2019-03-05T04:26:36.471Z,1.40
2019-03-05T04:29:06.834Z,1.33
2019-03-05T04:31:37.174Z,1.30
2019-03-05T04:34:07.825Z,1.50
2019-03-05T04:36:38.327Z,1.53
2019-03-05T04:39:11.886Z,1.30
2019-03-05T04:41:42.298Z,1.27
2019-03-05T04:44:14.298Z,1.50
2019-03-05T04:46:48.834Z,1.17
2019-03-05T04:49:37.176Z,1.30
2019-03-05T04:52:11.578Z,1.80
2019-03-05T04:54:41.951Z,1.50
2019-03-05T04:57:12.323Z,1.33
2019-03-05T04:59:42.643Z,1.10
2019-03-05T05:02:13.034Z,1.33
2019-03-05T05:04:43.505Z,1.10
2019-03-05T05:07:13.770Z,0.97
2019-03-05T05:09:45.218Z,1.30
2019-03-05T05:12:15.596Z,1.10
2019-03-05T05:14:45.943Z,0.90
2019-03-05T05:17:16.350Z,1.10
2019-03-05T05:19:46.785Z,1.20
2019-03-05T05:22:17.111Z,1.50
2019-03-05T05:24:47.470Z,1.20
2019-03-05T05:27:17.975Z,1.40
2019-03-05T05:29:48.405Z,1.50
2019-03-05T05:32:18.806Z,1.07
2019-03-05T05:34:49.173Z,1.73
2019-03-05T05:37:20.694Z,1.50
2019-03-05T05:40:22.605Z,1.60
2019-03-05T05:42:52.990Z,1.27
2019-03-05T05:45:24.749Z,1.70
2019-03-05T05:47:55.081Z,1.93
2019-03-05T05:50:25.425Z,2.03
2019-03-05T05:52:55.831Z,1.50
2019-03-05T05:55:26.320Z,1.53
2019-03-05T05:57:56.690Z,1.27
2019-03-05T06:00:27.155Z,1.10
2019-03-05T06:02:57.469Z,0.87
2019-03-05T06:05:27.817Z,0.70
2019-03-05T06:07:58.301Z,0.80
2019-03-05T06:10:29.867Z,0.70
2019-03-05T06:13:00.239Z,0.73
2019-03-05T06:15:30.590Z,0.57
2019-03-05T06:18:00.943Z,0.40
2019-03-05T06:20:31.292Z,1.37
2019-03-05T06:23:01.691Z,0.77
2019-03-05T06:25:32.164Z,0.70
2019-03-05T06:28:02.474Z,0.77
2019-03-05T06:30:33.663Z,0.80
2019-03-05T06:33:04.067Z,0.87
2019-03-05T06:35:35.488Z,1.37
2019-03-05T06:38:06.034Z,1.40
2019-03-05T06:40:36.357Z,1.70
2019-03-05T06:43:06.262Z,1.30
2019-03-05T06:45:36.765Z,1.53
2019-03-05T06:48:06.727Z,1.63
2019-03-05T06:50:38.266Z,1.80
2019-03-05T06:53:08.909Z,1.90
2019-03-05T06:55:39.704Z,2.23
2019-03-05T06:58:11.861Z,2.17
2019-03-05T07:26:10.788Z,2.13
2019-03-05T07:28:41.718Z,1.80
2019-03-05T07:31:12.551Z,2.10
2019-03-05T07:33:43.243Z,2.00
2019-03-05T07:36:13.658Z,1.70
2019-03-05T07:38:44.035Z,2.10
2019-03-05T07:41:14.525Z,1.80
2019-03-05T07:43:45.017Z,1.87
2019-03-05T07:46:15.466Z,2.07
2019-03-05T07:48:45.934Z,1.90
2019-03-05T07:51:16.481Z,2.03
2019-03-05T07:53:46.952Z,1.87
2019-03-05T07:56:17.443Z,2.37
2019-03-05T07:58:47.908Z,1.80
2019-03-05T08:01:22.258Z,2.33
2019-03-05T08:03:50.325Z,2.10
2019-03-05T08:06:20.788Z,1.80
2019-03-05T08:09:27.359Z,2.33
2019-03-05T08:12:14.002Z,2.00
2019-03-05T08:15:14.105Z,1.70
2019-03-05T08:17:46.939Z,1.60
2019-03-05T08:20:16.553Z,1.50
2019-03-05T08:22:47.054Z,1.63
2019-03-05T08:25:17.436Z,1.60
2019-03-05T08:27:50.564Z,1.60
2019-03-05T08:30:19.847Z,1.43
2019-03-05T08:32:50.270Z,1.40
2019-03-05T08:35:20.615Z,1.33
2019-03-05T08:37:50.944Z,1.43
2019-03-05T08:40:21.407Z,1.40
2019-03-05T08:42:51.818Z,1.10
2019-03-05T08:45:29.449Z,1.10
2019-03-05T08:47:54.189Z,0.93
2019-03-05T08:50:24.553Z,1.00
2019-03-05T08:52:54.937Z,0.90
2019-03-05T08:55:25.425Z,1.00
2019-03-05T08:57:55.811Z,0.97
2019-03-05T09:00:26.275Z,0.83
2019-03-05T09:02:56.845Z,1.00
2019-03-05T09:05:27.277Z,1.10
2019-03-05T09:07:59.659Z,1.17
2019-03-05T09:10:30.390Z,1.20
2019-03-05T09:13:00.870Z,1.00
2019-03-05T09:15:31.334Z,1.23
2019-03-05T09:18:01.711Z,1.60
2019-03-05T09:20:32.055Z,1.30
2019-03-05T09:23:02.500Z,1.30
2019-03-05T09:25:32.903Z,1.60
2019-03-05T09:28:03.250Z,1.20
2019-03-05T09:30:33.614Z,1.03
2019-03-05T09:33:04.026Z,1.30
2019-03-05T09:35:34.502Z,1.00
2019-03-05T09:38:04.999Z,1.10
2019-03-05T09:40:35.706Z,1.00
2019-03-05T09:43:06.031Z,1.10
2019-03-05T09:45:36.383Z,1.30
2019-03-05T09:48:06.697Z,1.33
2019-03-05T09:50:37.240Z,1.20
2019-03-05T09:53:07.702Z,1.77
2019-03-05T09:55:39.315Z,1.20
2019-03-05T09:58:09.767Z,1.07
2019-03-05T10:00:40.613Z,0.70
2019-03-05T10:03:11.030Z,0.97
2019-03-05T10:05:42.129Z,1.20
2019-03-05T10:08:16.462Z,1.03
2019-03-05T10:10:46.781Z,1.23
2019-03-05T10:13:17.171Z,0.97
2019-03-05T10:15:47.496Z,0.83
2019-03-05T10:18:17.837Z,1.00
2019-03-05T10:20:49.281Z,0.80
2019-03-05T10:23:19.775Z,0.93
2019-03-05T10:25:50.476Z,0.80
2019-03-05T10:28:21.106Z,0.70
2019-03-05T10:30:51.599Z,0.87
2019-03-05T10:33:22.142Z,0.83
2019-03-05T10:35:52.736Z,0.63
2019-03-05T10:38:23.166Z,0.80
2019-03-05T10:40:54.181Z,0.90
2019-03-05T10:43:25.165Z,0.90
2019-03-05T10:45:55.597Z,1.10
2019-03-05T10:48:26.368Z,1.27
2019-03-05T10:50:57.713Z,1.40
2019-03-05T10:53:28.573Z,1.40
2019-03-05T10:55:58.896Z,1.53
2019-03-05T10:58:33.859Z,1.60
2019-03-05T11:01:01.743Z,1.53
2019-03-05T11:03:32.164Z,1.43
2019-03-05T11:06:04.469Z,1.23
2019-03-05T11:08:34.963Z,1.40
2019-03-05T11:11:13.617Z,1.30
2019-03-05T11:13:40.506Z,1.50
2019-03-05T11:16:10.849Z,1.17
2019-03-05T11:18:44.829Z,1.17
2019-03-05T11:21:15.337Z,0.80
2019-03-05T11:23:45.837Z,1.10
2019-03-05T11:26:16.263Z,1.43
2019-03-05T11:28:46.654Z,1.20
2019-03-05T11:31:17.466Z,0.90
2019-03-05T11:33:47.893Z,1.33
2019-03-05T11:36:18.722Z,1.50
2019-03-05T11:38:49.610Z,1.47
2019-03-05T11:41:21.032Z,1.90
2019-03-05T11:43:51.395Z,1.57
2019-03-05T11:46:21.766Z,1.20
2019-03-05T11:48:52.447Z,1.67
2019-03-05T11:51:22.839Z,1.83
2019-03-05T11:53:53.261Z,2.07
2019-03-05T11:56:25.880Z,1.97
2019-03-05T11:58:56.895Z,2.20
2019-03-05T12:01:48.097Z,2.40
2019-03-05T12:04:18.643Z,2.43
2019-03-05T12:06:49.077Z,2.30
2019-03-05T12:09:19.450Z,2.30
2019-03-05T12:11:49.954Z,2.57
2019-03-05T12:14:20.310Z,2.40
2019-03-05T12:16:50.694Z,2.60
2019-03-05T12:19:21.004Z,2.63
2019-03-05T12:21:51.366Z,2.23
2019-03-05T12:24:24.161Z,2.13
2019-03-05T12:26:53.903Z,2.67
2019-03-05T12:29:24.345Z,2.63
2019-03-05T12:31:56.658Z,2.60
2019-03-05T12:34:27.059Z,2.60
2019-03-05T12:36:57.534Z,2.63
2019-03-05T12:39:27.963Z,2.50
2019-03-05T12:41:58.463Z,2.73
2019-03-05T12:44:28.847Z,2.97
2019-03-05T12:46:59.330Z,2.80
2019-03-05T12:49:29.763Z,3.27
2019-03-05T12:52:00.278Z,3.27
2019-03-05T12:54:30.685Z,3.10
2019-03-05T12:57:01.041Z,2.97
2019-03-05T12:59:31.436Z,3.40
2019-03-05T13:02:01.877Z,3.17
2019-03-05T13:04:32.302Z,3.07
2019-03-05T13:07:02.804Z,3.00
2019-03-05T13:09:33.231Z,2.53
2019-03-05T13:12:03.818Z,2.40
2019-03-05T13:14:34.145Z,2.97
2019-03-05T13:17:06.917Z,2.80
2019-03-05T13:19:38.761Z,2.43
2019-03-05T13:22:09.599Z,2.73
2019-03-05T13:24:40.052Z,2.80
2019-03-05T13:27:12.292Z,2.70
2019-03-05T13:29:42.660Z,2.60
2019-03-05T13:32:16.798Z,2.70
2019-03-05T13:34:45.241Z,2.53
2019-03-05T13:37:15.594Z,2.60
2019-03-05T13:39:45.968Z,2.30
2019-03-05T13:42:16.436Z,2.60
2019-03-05T13:44:48.831Z,2.60
2019-03-05T13:47:19.303Z,2.53
2019-03-05T13:50:11.280Z,2.60
2019-03-05T13:53:43.947Z,2.50
2019-03-05T13:56:54.591Z,2.30
2019-03-05T13:59:43.953Z,2.53
2019-03-05T14:02:22.899Z,2.60
2019-03-05T14:04:59.369Z,2.30
2019-03-05T14:08:09.664Z,2.67
2019-03-05T14:10:42.463Z,2.50
2019-03-05T14:13:12.811Z,2.87
2019-03-05T14:15:44.102Z,2.87
2019-03-05T14:18:14.441Z,2.07
2019-03-05T14:20:44.785Z,2.80
2019-03-05T14:23:15.320Z,2.83
2019-03-05T14:25:45.602Z,3.20
2019-03-05T14:28:16.046Z,3.43
2019-03-05T14:30:46.448Z,3.23
2019-03-05T14:33:16.967Z,2.80
2019-03-05T14:35:47.693Z,3.00
2019-03-05T14:38:18.406Z,3.10
2019-03-05T14:40:49.298Z,2.70
2019-03-05T14:43:19.890Z,2.60
2019-03-05T14:45:50.403Z,2.70
2019-03-05T14:48:20.827Z,2.40
2019-03-05T14:50:51.217Z,2.60
2019-03-05T14:53:21.571Z,2.60
2019-03-05T14:55:54.491Z,2.40
2019-03-05T14:58:23.849Z,2.70
2019-03-05T15:00:55.266Z,2.60
2019-03-05T15:03:25.563Z,2.73
2019-03-05T15:05:56.785Z,2.83
2019-03-05T15:08:27.230Z,2.80
2019-03-05T15:10:57.577Z,2.80
2019-03-05T15:13:31.051Z,3.00
2019-03-05T15:16:01.406Z,2.83
2019-03-05T15:18:31.765Z,2.70
2019-03-05T15:21:02.277Z,3.00
2019-03-05T15:23:32.620Z,2.90
2019-03-05T15:26:06.158Z,3.00
2019-03-05T15:28:37.872Z,3.17
2019-03-05T15:31:08.256Z,2.90
2019-03-05T15:33:41.960Z,3.10
2019-03-05T15:36:23.244Z,2.93
2019-03-05T15:38:44.560Z,2.80
2019-03-05T15:41:14.820Z,3.03
2019-03-05T15:43:45.213Z,3.20
2019-03-05T15:46:15.582Z,2.93
2019-03-05T15:48:46.040Z,3.10
2019-03-05T15:51:16.354Z,2.97
2019-03-05T15:56:17.853Z,2.97
2019-03-05T15:58:48.228Z,2.50
2019-03-05T16:01:22.360Z,2.20
2019-03-05T16:03:50.722Z,2.40
2019-03-05T16:06:21.077Z,2.30
2019-03-05T16:08:51.517Z,2.07
2019-03-05T16:11:21.855Z,2.20
2019-03-05T16:13:56.024Z,2.40
2019-03-05T16:16:24.168Z,2.50
2019-03-05T16:18:54.537Z,2.40
2019-03-05T16:21:24.833Z,2.60
2019-03-05T16:23:55.208Z,2.03
2019-03-05T16:26:25.684Z,2.30
2019-03-05T16:28:56.006Z,1.50
2019-03-05T16:31:45.437Z,1.50
2019-03-05T16:34:32.090Z,1.40
2019-03-05T16:37:21.244Z,1.60
2019-03-05T16:39:58.047Z,1.50
2019-03-05T16:42:43.514Z,1.70
2019-03-05T16:45:31.608Z,1.60
2019-03-05T16:48:30.659Z,1.40
2019-03-05T16:51:20.193Z,1.70
2019-03-05T16:54:08.454Z,1.20
2019-03-05T16:57:04.022Z,1.40
2019-03-05T16:59:53.674Z,1.40
2019-03-05T17:02:42.934Z,1.70
2019-03-05T17:05:46.105Z,1.77
2019-03-05T17:08:29.246Z,1.63
2019-03-05T17:11:30.396Z,1.80
2019-03-05T17:14:01.977Z,1.87
2019-03-05T17:16:32.349Z,1.60
2019-03-05T17:19:02.857Z,1.90
2019-03-05T17:21:33.209Z,2.90
2019-03-05T17:24:03.780Z,2.50
2019-03-05T17:26:34.179Z,2.77
2019-03-05T17:29:05.079Z,1.77
2019-03-05T17:31:36.482Z,2.03
2019-03-05T17:34:07.189Z,2.00
2019-03-05T17:36:38.181Z,2.50
2019-03-05T17:39:15.453Z,2.00
2019-03-05T17:41:45.947Z,2.30
2019-03-05T17:46:54.533Z,2.70
2019-03-05T17:49:25.128Z,2.90
2019-03-05T17:51:55.546Z,3.20
2019-03-05T17:54:28.979Z,3.10
2019-03-05T17:56:59.298Z,2.67
2019-03-05T17:59:29.610Z,2.67
2019-03-05T18:01:59.997Z,2.60
2019-03-05T18:04:30.335Z,2.63
2019-03-05T18:07:00.848Z,2.93
2019-03-05T18:09:31.169Z,3.37
2019-03-05T18:12:01.494Z,3.60
2019-03-05T18:14:31.737Z,3.67
2019-03-05T18:17:02.122Z,4.20
2019-03-05T18:19:32.414Z,3.90
2019-03-05T18:22:02.804Z,4.17
2019-03-05T18:24:33.174Z,4.20
2019-03-05T18:27:03.516Z,4.50
2019-03-05T18:29:34.509Z,5.17
2019-03-05T18:32:05.469Z,4.70
2019-03-05T18:34:36.147Z,4.50
2019-03-05T18:37:06.431Z,4.50
2019-03-05T18:39:37.184Z,4.93
2019-03-05T18:42:07.127Z,5.07
2019-03-05T18:44:37.487Z,4.83
2019-03-05T18:47:07.938Z,5.43
2019-03-05T18:49:38.547Z,5.13
2019-03-05T18:52:09.075Z,5.07
2019-03-05T18:54:39.830Z,5.37
2019-03-05T18:57:10.134Z,5.00
2019-03-05T18:59:40.624Z,5.47
2019-03-05T19:02:10.933Z,4.90
2019-03-05T19:04:41.304Z,5.20
2019-03-05T19:07:11.712Z,5.03
2019-03-05T19:09:42.137Z,5.50
2019-03-05T19:12:12.612Z,5.10
2019-03-05T19:14:43.206Z,5.20
2019-03-05T19:17:13.524Z,5.27
2019-03-05T19:19:43.825Z,5.30
2019-03-05T19:22:14.796Z,5.60
2019-03-05T19:24:45.214Z,5.70
2019-03-05T19:27:25.699Z,5.20
2019-03-05T19:29:50.635Z,6.00
2019-03-05T19:32:24.104Z,5.70
2019-03-05T19:34:55.730Z,6.00
2019-03-05T19:37:27.706Z,6.03
2019-03-05T19:39:59.466Z,6.13
2019-03-05T19:42:33.261Z,6.20
2019-03-05T19:45:05.944Z,6.13
2019-03-05T19:47:40.429Z,6.30
2019-03-05T19:50:13.586Z,5.80
2019-03-05T19:52:45.053Z,6.37
2019-03-05T19:55:21.120Z,5.33
2019-03-05T20:00:58.537Z,6.23
2019-03-05T20:03:30.392Z,6.27
2019-03-05T20:06:02.098Z,6.30
2019-03-05T20:08:39.853Z,5.97
2019-03-05T20:11:06.886Z,6.50
2019-03-05T20:13:38.401Z,6.17
2019-03-05T20:16:10.049Z,6.33
2019-03-05T20:18:41.628Z,6.07
2019-03-05T20:21:15.725Z,6.53
2019-03-05T20:23:47.076Z,5.93
2019-03-05T20:26:18.228Z,5.47
2019-03-05T20:29:35.237Z,5.43
2019-03-05T20:32:05.532Z,5.50
2019-03-05T20:34:37.022Z,5.03
2019-03-05T20:37:08.522Z,5.43
2019-03-05T20:39:40.155Z,4.63
2019-03-05T20:42:11.355Z,5.27
2019-03-05T20:44:44.971Z,5.00
2019-03-05T20:47:16.406Z,4.60
2019-03-05T20:49:48.148Z,4.93
2019-03-05T20:52:19.664Z,4.63
2019-03-05T20:54:51.739Z,4.60
2019-03-05T20:57:23.727Z,4.53
2019-03-05T20:59:55.777Z,5.73
2019-03-05T21:02:26.789Z,6.43
2019-03-05T21:04:57.970Z,6.70
2019-03-05T21:07:29.499Z,5.13
2019-03-05T21:10:00.933Z,4.90
2019-03-05T21:12:31.299Z,4.70
2019-03-05T21:15:02.744Z,5.20
2019-03-05T21:17:33.765Z,4.80
2019-03-05T21:20:06.044Z,5.27
2019-03-05T21:22:37.638Z,4.80
2019-03-05T21:25:10.316Z,4.57
2019-03-05T21:27:41.602Z,4.70
2019-03-05T21:30:15.593Z,5.40
2019-03-05T21:32:47.729Z,4.33
2019-03-05T21:35:19.583Z,4.37
2019-03-05T21:37:51.720Z,4.30
2019-03-05T21:40:24.015Z,4.47
2019-03-05T21:42:55.856Z,4.23
2019-03-05T21:45:32.701Z,4.63
2019-03-05T21:48:05.320Z,4.17
2019-03-05T21:50:36.909Z,4.13
2019-03-05T21:53:08.177Z,4.20
2019-03-05T21:55:40.201Z,3.77
2019-03-05T21:58:12.225Z,3.60
2019-03-05T22:00:43.749Z,3.80
2019-03-05T22:03:15.210Z,4.47
2019-03-05T22:05:45.510Z,4.53
2019-03-05T22:08:16.785Z,4.70
2019-03-05T22:10:48.369Z,4.43
2019-03-05T22:13:20.153Z,4.40
2019-03-05T22:15:51.575Z,4.93
2019-03-05T22:20:20.563Z,5.40
2019-03-05T22:22:50.965Z,7.00
2019-03-05T22:25:21.393Z,7.13
2019-03-05T22:27:51.865Z,9.27
2019-03-05T22:30:24.178Z,6.70
2019-03-05T22:32:54.484Z,6.30
2019-03-05T22:35:25.167Z,5.33
2019-03-05T22:37:55.528Z,5.13
2019-03-05T22:40:26.021Z,6.07
2019-03-05T22:42:55.968Z,6.43
2019-03-05T22:45:26.278Z,5.63
2019-03-05T22:47:56.557Z,5.60
2019-03-05T22:50:26.916Z,4.57
2019-03-05T22:52:57.245Z,4.27
2019-03-05T22:55:27.529Z,4.13
2019-03-05T22:57:58.161Z,4.60
2019-03-05T23:00:58.378Z,4.37
2019-03-05T23:03:29.063Z,4.10
2019-03-05T23:06:00.177Z,4.73
2019-03-05T23:08:30.578Z,5.03
2019-03-05T23:11:00.889Z,5.73
2019-03-05T23:13:31.641Z,6.67
2019-03-05T23:16:02.131Z,5.53
2019-03-05T23:18:32.433Z,5.23
2019-03-05T23:21:02.830Z,4.70
2019-03-05T23:23:33.190Z,4.20
2019-03-05T23:26:03.753Z,5.17
2019-03-05T23:28:34.076Z,5.10
2019-03-05T23:31:04.673Z,5.20
2019-03-05T23:33:34.944Z,5.60
2019-03-05T23:36:05.477Z,5.20
2019-03-05T23:38:35.997Z,5.80
2019-03-05T23:41:06.372Z,6.43
2019-03-05T23:43:36.689Z,6.90
2019-03-05T23:46:06.618Z,5.90
2019-03-05T23:48:36.984Z,6.13
2019-03-05T23:51:07.270Z,5.97
2019-03-05T23:53:37.617Z,5.60
2019-03-05T23:56:07.984Z,5.73
2019-03-05T23:58:38.581Z,5.40
